Aeroporto :







RITROVATECI SU...

 
LOGIN :

Iscrizione | Disclaimer

   EN    FR    IT 

 









Sommario :    VFR   VFR Marginale   IFR   IFR Intensivo   IFR Molto Intensivo
Visibilità : 
Base nubi : 
>= 8 km
>= 3000ft
5 / 8 km
1000 / 3000 ft
1500m / 5 km
500 / 1000 ft
800 / 1500m
200 / 500 ft
< 800m
< 200 ft
Simboli :   Temporali  Nebbia  Neve Forte  Precipitazioni Forti  Vento > 20 kt






- Altitudine del aeroporto : 47 ft
- Codice IATA : PUJ


MDPC - Punta Cana Int.

ULTIMO METAR :
  • 251200Z 06008KT 9999 SCT018 25/19 Q1017

METARs OBSOLETI :
  • 251100Z 05011KT 9999 BKN018 25/19 Q1016
  • 251000Z 05010KT 9999 BKN018 25/19 Q1016

TAF TAF MDPC
Valido dal 25 a 12 ore il 26 a 12 ore UTC


251000Z 2512/2612 06010KT 9999 SCT018 SCT070
PROB30 2506/2512 8000 -RA BKN016 SCT070



MetMap, La meteo Aeronautica in un colpo d'occhio ! - Copyright ORBIFLY Dicembre 2007 - Disclaimer

ORBIFLY MET'MAP TEAM :

Programmazione e sviluppo : Alexandra Zaïnal
Concezione : Baudouin d'Aumeries
Aiuto per la programmazione : Marc-Olivier Méhu
Supporto tecnico e logistico : Manuel Goepfert
Aiuto per la traduzione : Arnaldo La Scala

Contatto : metmap@orbifly.com




FONTI E CREDITI :

   NOAA